MyWebLog Booking Liste

 

Nyhetsmelding

Kopirett © 2015 Værnes Flyklubb. Alle rettigheter reservert.
Joomla! er fri programvare utgitt under GNU/GPL License.
 

METAR

ENVA 272020Z 17002KT 9999 BKN035 05/01 Q0995 TEMPO BKN012 RMK WIND 670FT 21014KT

TAF ENVA 2721/2821 18008KT 9999 FEW012 BKN025 TEMPO 2721/2809 24012KT RA FEW007 BKN012